Time;durP1;ratioP1;P1;durP2;ratioP2;P2;SDS_P1;SDS_P2;PMS_P1;PMS_P2;Temp;Humidity;BMP_temperature;BMP_pressure;BME280_temperature;BME280_humidity;BME280_pressure;Samples;Min_cycle;Max_cycle;Signal;HPM_P1;HPM_P2
2022/03/31 00:01:21;;;;;;;;;;;4.30;99.90;;;;;;5033727;28;19928;-64
2022/03/31 00:03:47;;;;;;;;;;;4.40;99.90;;;;;;5036106;28;19928;-64
2022/03/31 00:06:12;;;;;;;;;;;4.40;99.90;;;;;;5038759;28;19916;-64
2022/03/31 00:08:38;;;;;;;;;;;4.50;99.90;;;;;;5039314;28;19917;-64
2022/03/31 00:11:04;;;;;;;;;;;4.50;99.90;;;;;;5037416;28;19916;-64
2022/03/31 00:13:29;;;;;;;;;;;4.50;99.90;;;;;;5038677;28;20392;-64
2022/03/31 00:15:59;;;;;;;;;;;4.50;99.90;;;;;;5036565;28;19921;-64
2022/03/31 00:18:26;;;;;;;;;;;4.50;99.90;;;;;;5038447;28;19918;-64
2022/03/31 00:20:51;;;;;;;;;;;4.50;99.90;;;;;;5038807;28;19917;-64
2022/03/31 00:23:17;;;;;;;;;;;4.50;99.90;;;;;;5034222;28;20451;-64
2022/03/31 00:25:43;;;;;;;;;;;4.50;99.90;;;;;;5039102;28;20377;-64
2022/03/31 00:28:08;;;;;;;;;;;4.40;99.90;;;;;;5039380;28;19913;-64
2022/03/31 00:30:35;;;;;;;;;;;4.40;99.90;;;;;;5035919;28;19917;-64
2022/03/31 00:33:00;;;;;;;;;;;4.40;99.90;;;;;;5038371;28;20011;-64
2022/03/31 00:35:26;;;;;;;;;;;4.40;99.90;;;;;;5035482;28;19960;-64
2022/03/31 00:37:52;;;;;;;;;;;4.30;99.90;;;;;;5035484;28;20243;-64
2022/03/31 00:40:18;;;;;;;;;;;4.30;99.90;;;;;;5035833;28;19913;-64
2022/03/31 00:42:47;;;;;;;;;;;4.30;99.90;;;;;;5038253;28;19963;-64
2022/03/31 00:45:23;;;;;;;;;;;4.30;99.90;;;;;;5030818;28;20043;-64
2022/03/31 00:47:49;;;;;;;;;;;4.30;99.90;;;;;;5032510;28;20266;-64
2022/03/31 00:50:16;;;;;;;;;;;4.30;99.90;;;;;;5038345;28;19975;-64
2022/03/31 00:52:41;;;;;;;;;;;4.30;99.90;;;;;;5037617;28;19965;-64
2022/03/31 00:55:09;;;;;;;;;;;4.30;99.90;;;;;;5034594;28;19991;-64
2022/03/31 00:57:35;;;;;;;;;;;4.30;99.90;;;;;;5040017;28;19924;-64
2022/03/31 01:00:00;;;;;;;;;;;4.40;99.90;;;;;;5039065;28;19920;-64
2022/03/31 01:02:32;;;;;;;;;;;4.40;99.90;;;;;;5038775;28;19913;-63
2022/03/31 01:05:00;;;;;;;;;;;4.40;99.90;;;;;;5037223;28;19916;-64
2022/03/31 01:07:26;;;;;;;;;;;4.40;99.90;;;;;;5040073;28;19913;-64
2022/03/31 01:09:56;;;;;;;;;;;4.40;99.90;;;;;;5034226;28;19919;-63
2022/03/31 01:12:22;;;;;;;;;;;4.50;99.90;;;;;;5036682;28;20055;-64
2022/03/31 01:14:48;;;;;;;;;;;4.60;99.90;;;;;;5035910;28;20011;-64
2022/03/31 01:17:13;;;;;;;;;;;4.60;99.90;;;;;;5035462;28;21184;-64
2022/03/31 01:19:39;;;;;;;;;;;4.60;99.90;;;;;;5037012;28;19913;-64
2022/03/31 01:22:05;;;;;;;;;;;4.60;99.90;;;;;;5035465;28;20321;-64
2022/03/31 01:24:30;;;;;;;;;;;4.60;99.90;;;;;;5037030;28;20385;-64
2022/03/31 01:26:56;;;;;;;;;;;4.60;99.90;;;;;;5038081;28;19916;-63
2022/03/31 01:29:23;;;;;;;;;;;4.60;99.90;;;;;;5034964;28;20297;-64
2022/03/31 01:31:49;;;;;;;;;;;4.60;99.90;;;;;;5036162;28;19921;-64
2022/03/31 01:34:15;;;;;;;;;;;4.60;99.90;;;;;;5034993;28;19924;-64
2022/03/31 01:36:40;;;;;;;;;;;4.60;99.90;;;;;;5037909;28;19942;-64
2022/03/31 01:39:05;;;;;;;;;;;4.60;99.90;;;;;;5033141;28;19940;-64
2022/03/31 01:41:31;;;;;;;;;;;4.60;99.90;;;;;;5036761;28;20396;-64
2022/03/31 01:43:56;;;;;;;;;;;4.70;99.90;;;;;;5036367;28;20400;-64
2022/03/31 01:46:22;;;;;;;;;;;4.70;99.90;;;;;;5035181;28;19937;-64
2022/03/31 01:48:47;;;;;;;;;;;4.60;99.90;;;;;;5035129;28;19916;-64
2022/03/31 01:51:14;;;;;;;;;;;4.70;99.90;;;;;;5037067;28;19913;-64
2022/03/31 01:53:40;;;;;;;;;;;4.70;99.90;;;;;;5034203;28;19956;-64
2022/03/31 01:56:08;;;;;;;;;;;4.70;99.90;;;;;;5039180;28;19968;-64
2022/03/31 01:58:34;;;;;;;;;;;4.70;99.90;;;;;;5037401;28;19928;-64
2022/03/31 02:00:59;;;;;;;;;;;4.70;99.90;;;;;;5036140;28;19912;-64
2022/03/31 02:03:25;;;;;;;;;;;4.80;99.90;;;;;;5034185;28;19921;-64
2022/03/31 02:05:51;;;;;;;;;;;4.80;99.90;;;;;;5035947;28;20304;-64
2022/03/31 02:08:17;;;;;;;;;;;4.80;99.90;;;;;;5035580;28;19923;-64
2022/03/31 02:10:42;;;;;;;;;;;4.80;99.90;;;;;;5035086;28;19913;-64
2022/03/31 02:13:08;;;;;;;;;;;4.70;99.90;;;;;;5034750;28;19923;-64
2022/03/31 02:15:34;;;;;;;;;;;4.70;99.90;;;;;;5033191;28;19925;-64
2022/03/31 02:18:01;;;;;;;;;;;4.60;99.90;;;;;;5033331;28;19917;-64
2022/03/31 02:20:27;;;;;;;;;;;4.60;99.90;;;;;;5034622;28;19916;-64
2022/03/31 02:22:53;;;;;;;;;;;4.60;99.90;;;;;;5034380;28;19920;-63
2022/03/31 02:25:19;;;;;;;;;;;4.50;99.90;;;;;;5032951;28;19913;-64
2022/03/31 02:27:44;;;;;;;;;;;4.50;99.90;;;;;;5036989;28;19925;-64
2022/03/31 02:30:10;;;;;;;;;;;4.50;99.90;;;;;;5034822;28;20293;-64
2022/03/31 02:32:37;;;;;;;;;;;4.40;99.90;;;;;;5037044;28;19923;-64
2022/03/31 02:35:03;;;;;;;;;;;4.40;99.90;;;;;;5034511;28;19920;-64
2022/03/31 02:37:29;;;;;;;;;;;4.40;99.90;;;;;;5034869;28;20369;-64
2022/03/31 02:39:55;;;;;;;;;;;4.30;99.90;;;;;;5035033;28;19940;-64
2022/03/31 02:42:20;;;;;;;;;;;4.30;99.90;;;;;;5036313;28;20325;-64
2022/03/31 02:44:45;;;;;;;;;;;4.30;99.90;;;;;;5034947;28;19913;-64
2022/03/31 02:47:11;;;;;;;;;;;4.20;99.90;;;;;;5035314;28;19921;-64
2022/03/31 02:49:37;;;;;;;;;;;4.20;99.90;;;;;;5034158;28;19928;-64
2022/03/31 02:52:03;;;;;;;;;;;4.10;99.90;;;;;;5034421;28;20003;-64
2022/03/31 02:57:12;;;;;;;;;;;4.00;99.90;;;;;;5038731;28;19923;-64
2022/03/31 02:59:38;;;;;;;;;;;4.00;99.90;;;;;;5035573;28;19913;-64
2022/03/31 03:02:04;;;;;;;;;;;4.00;99.90;;;;;;5033622;28;20434;-64
2022/03/31 03:04:29;;;;;;;;;;;3.90;99.90;;;;;;5036663;28;19987;-64
2022/03/31 03:06:55;;;;;;;;;;;3.90;99.90;;;;;;5037668;28;19962;-64
2022/03/31 03:09:20;;;;;;;;;;;3.90;99.90;;;;;;5035707;28;19914;-64
2022/03/31 03:11:46;;;;;;;;;;;3.90;99.90;;;;;;5035190;28;19967;-64
2022/03/31 03:14:13;;;;;;;;;;;3.90;99.90;;;;;;5035483;28;19913;-64
2022/03/31 03:16:41;;;;;;;;;;;3.90;99.90;;;;;;5035117;28;20038;-64
2022/03/31 03:19:07;;;;;;;;;;;3.90;99.90;;;;;;5033828;28;20428;-64
2022/03/31 03:21:34;;;;;;;;;;;4.00;99.90;;;;;;5036241;28;20007;-64
2022/03/31 03:24:01;;;;;;;;;;;4.00;99.90;;;;;;5033781;28;19921;-63
2022/03/31 03:26:27;;;;;;;;;;;4.00;99.90;;;;;;5037352;28;19966;-64
2022/03/31 03:28:53;;;;;;;;;;;4.00;99.90;;;;;;5031453;28;19925;-64
2022/03/31 03:31:18;;;;;;;;;;;4.00;99.90;;;;;;5032724;28;19927;-64
2022/03/31 03:33:43;;;;;;;;;;;4.00;99.90;;;;;;5034588;28;20036;-63
2022/03/31 03:36:11;;;;;;;;;;;4.00;99.90;;;;;;5030018;28;19917;-64
2022/03/31 03:38:37;;;;;;;;;;;4.00;99.90;;;;;;5035520;28;20004;-64
2022/03/31 03:41:02;;;;;;;;;;;4.10;99.90;;;;;;5035746;28;20003;-64
2022/03/31 03:43:31;;;;;;;;;;;4.10;99.90;;;;;;5037040;28;19913;-64
2022/03/31 03:45:56;;;;;;;;;;;4.10;99.90;;;;;;5036316;28;19922;-64
2022/03/31 03:48:22;;;;;;;;;;;4.20;99.90;;;;;;5035724;28;20237;-64
2022/03/31 03:50:48;;;;;;;;;;;4.20;99.90;;;;;;5034892;28;19912;-62
2022/03/31 03:53:14;;;;;;;;;;;4.20;99.90;;;;;;5037822;28;19978;-64
2022/03/31 03:55:40;;;;;;;;;;;4.20;99.90;;;;;;5038323;28;19921;-64
2022/03/31 03:58:05;;;;;;;;;;;4.20;99.90;;;;;;5038975;28;19979;-63
2022/03/31 04:00:31;;;;;;;;;;;4.20;99.90;;;;;;5040094;28;19917;-63
2022/03/31 04:02:57;;;;;;;;;;;4.30;99.90;;;;;;5037131;28;20345;-63
2022/03/31 04:05:23;;;;;;;;;;;4.20;99.90;;;;;;5038070;28;20012;-64
2022/03/31 04:07:48;;;;;;;;;;;4.20;99.90;;;;;;5038510;28;20572;-64
2022/03/31 04:10:14;;;;;;;;;;;4.30;99.90;;;;;;5035795;28;19920;-64
2022/03/31 04:12:39;;;;;;;;;;;4.30;99.90;;;;;;5036743;28;19925;-66
2022/03/31 04:15:06;;;;;;;;;;;4.20;99.90;;;;;;5027893;28;19917;-64
2022/03/31 04:17:32;;;;;;;;;;;4.20;99.90;;;;;;5039202;28;19916;-66
2022/03/31 04:19:58;;;;;;;;;;;4.20;99.90;;;;;;5036036;28;19917;-65
2022/03/31 04:22:23;;;;;;;;;;;4.20;99.90;;;;;;5031544;28;19928;-66
2022/03/31 04:24:48;;;;;;;;;;;4.20;99.90;;;;;;5031432;28;19913;-65
2022/03/31 04:27:14;;;;;;;;;;;4.20;99.90;;;;;;5036213;28;19932;-66
2022/03/31 04:29:39;;;;;;;;;;;4.20;99.90;;;;;;5032770;28;19924;-66
2022/03/31 04:32:05;;;;;;;;;;;4.20;99.90;;;;;;5035763;28;19932;-66
2022/03/31 04:34:30;;;;;;;;;;;4.10;99.90;;;;;;5040228;28;20178;-65
2022/03/31 04:36:56;;;;;;;;;;;4.10;99.90;;;;;;5040770;28;20232;-65
2022/03/31 04:39:21;;;;;;;;;;;4.10;99.90;;;;;;5039429;28;20019;-65
2022/03/31 04:41:47;;;;;;;;;;;4.20;99.90;;;;;;5040205;28;19957;-65
2022/03/31 04:44:12;;;;;;;;;;;4.20;99.90;;;;;;5039317;28;19991;-65
2022/03/31 04:46:38;;;;;;;;;;;4.20;99.90;;;;;;5037273;28;19913;-66
2022/03/31 04:49:05;;;;;;;;;;;4.10;99.90;;;;;;5039737;28;20007;-66
2022/03/31 04:51:30;;;;;;;;;;;4.10;99.90;;;;;;5040137;28;19956;-65
2022/03/31 04:53:56;;;;;;;;;;;4.10;99.90;;;;;;5038706;28;19985;-65
2022/03/31 04:56:21;;;;;;;;;;;4.10;99.90;;;;;;5037748;28;20008;-66
2022/03/31 04:58:47;;;;;;;;;;;4.10;99.90;;;;;;5038178;28;19939;-64
2022/03/31 05:01:12;;;;;;;;;;;4.10;99.90;;;;;;5037187;28;19956;-66
2022/03/31 05:03:39;;;;;;;;;;;4.10;99.90;;;;;;5040738;28;19913;-62
2022/03/31 05:06:04;;;;;;;;;;;4.10;99.90;;;;;;5040057;28;19928;-66
2022/03/31 05:08:30;;;;;;;;;;;4.30;99.90;;;;;;5039740;28;19910;-66
2022/03/31 05:10:55;;;;;;;;;;;4.40;99.90;;;;;;5038708;28;19912;-66
2022/03/31 05:13:21;;;;;;;;;;;4.30;99.90;;;;;;5038724;28;19921;-66
2022/03/31 05:15:46;;;;;;;;;;;4.30;99.90;;;;;;5040156;28;20149;-67
2022/03/31 05:18:12;;;;;;;;;;;4.30;99.90;;;;;;5039434;28;19963;-67
2022/03/31 05:20:37;;;;;;;;;;;4.20;99.90;;;;;;5039057;28;20389;-67
2022/03/31 05:23:03;;;;;;;;;;;4.20;99.90;;;;;;5039007;28;19959;-67
2022/03/31 05:25:28;;;;;;;;;;;4.10;99.90;;;;;;5039620;28;19917;-67
2022/03/31 05:27:54;;;;;;;;;;;4.20;99.90;;;;;;5037815;28;19990;-68
2022/03/31 05:30:19;;;;;;;;;;;4.20;99.90;;;;;;5037518;28;20332;-68
2022/03/31 05:32:48;;;;;;;;;;;4.20;99.90;;;;;;5037074;28;19913;-68
2022/03/31 05:35:14;;;;;;;;;;;4.30;99.90;;;;;;5038449;28;19921;-68
2022/03/31 05:37:40;;;;;;;;;;;4.30;99.90;;;;;;5036410;28;19990;-67
2022/03/31 05:40:06;;;;;;;;;;;4.20;99.90;;;;;;5037421;28;20471;-68
2022/03/31 05:42:32;;;;;;;;;;;4.30;99.90;;;;;;5038003;28;20270;-67
2022/03/31 05:44:59;;;;;;;;;;;4.20;99.90;;;;;;5038001;28;20308;-67
2022/03/31 05:47:24;;;;;;;;;;;4.20;99.90;;;;;;5037710;28;19917;-67
2022/03/31 05:49:50;;;;;;;;;;;4.20;99.90;;;;;;5037440;28;19916;-68
2022/03/31 05:52:15;;;;;;;;;;;4.30;99.90;;;;;;5037717;28;19909;-68
2022/03/31 05:54:41;;;;;;;;;;;4.30;99.90;;;;;;5035649;28;19948;-67
2022/03/31 05:57:06;;;;;;;;;;;4.30;99.90;;;;;;5036515;28;19928;-67
2022/03/31 05:59:31;;;;;;;;;;;4.30;99.90;;;;;;5038645;28;20374;-67
2022/03/31 06:01:57;;;;;;;;;;;4.20;99.90;;;;;;5038412;28;19936;-67
2022/03/31 06:04:22;;;;;;;;;;;4.10;99.90;;;;;;5037924;28;19940;-68
2022/03/31 06:06:48;;;;;;;;;;;4.00;99.90;;;;;;5038596;28;19917;-68
2022/03/31 06:09:14;;;;;;;;;;;3.90;99.90;;;;;;5037019;28;19932;-67
2022/03/31 06:11:40;;;;;;;;;;;3.80;99.90;;;;;;5037351;28;19983;-67
2022/03/31 06:14:05;;;;;;;;;;;3.70;99.90;;;;;;5038116;28;19920;-67
2022/03/31 06:16:31;;;;;;;;;;;3.70;99.90;;;;;;5039062;28;20381;-67
2022/03/31 06:18:56;;;;;;;;;;;3.70;99.90;;;;;;5038741;28;19935;-68
2022/03/31 06:21:22;;;;;;;;;;;3.80;99.90;;;;;;5038500;28;20495;-67
2022/03/31 06:23:48;;;;;;;;;;;3.70;99.90;;;;;;5038231;28;19920;-67
2022/03/31 06:26:13;;;;;;;;;;;3.70;99.90;;;;;;5034859;28;19921;-67
2022/03/31 06:28:39;;;;;;;;;;;3.60;99.90;;;;;;5037334;28;19919;-67
2022/03/31 06:31:05;;;;;;;;;;;3.70;99.90;;;;;;5038274;28;19999;-67
2022/03/31 06:33:31;;;;;;;;;;;3.70;99.90;;;;;;5038289;28;19910;-67
2022/03/31 06:35:56;;;;;;;;;;;3.70;99.90;;;;;;5038182;28;19939;-67
2022/03/31 06:38:21;;;;;;;;;;;3.70;99.90;;;;;;5037607;28;19932;-67
2022/03/31 06:41:06;;;;;;;;;;;3.70;99.90;;;;;;5035982;28;20015;-68
2022/03/31 06:43:32;;;;;;;;;;;3.70;99.90;;;;;;5037514;28;19909;-67
2022/03/31 06:45:57;;;;;;;;;;;3.80;99.90;;;;;;5038056;28;19920;-68
2022/03/31 06:48:23;;;;;;;;;;;3.90;99.90;;;;;;5037238;28;19910;-67
2022/03/31 06:50:48;;;;;;;;;;;3.90;99.90;;;;;;5038110;28;19909;-67
2022/03/31 06:53:14;;;;;;;;;;;4.00;99.90;;;;;;5037070;28;20020;-67
2022/03/31 06:55:39;;;;;;;;;;;3.90;99.90;;;;;;5037619;28;19921;-67
2022/03/31 06:58:05;;;;;;;;;;;3.90;99.60;;;;;;5035088;28;19965;-67
2022/03/31 07:00:30;;;;;;;;;;;3.90;99.40;;;;;;5037159;28;19913;-67
2022/03/31 07:02:55;;;;;;;;;;;3.80;99.50;;;;;;5038032;28;19912;-67
2022/03/31 07:05:21;;;;;;;;;;;3.80;99.40;;;;;;5036426;28;19932;-67
2022/03/31 07:07:46;;;;;;;;;;;3.90;99.40;;;;;;5037949;28;19910;-67
2022/03/31 07:10:13;;;;;;;;;;;3.90;99.50;;;;;;5036903;28;19921;-67
2022/03/31 07:12:42;;;;;;;;;;;3.90;99.10;;;;;;5037793;28;19948;-67
2022/03/31 07:15:08;;;;;;;;;;;3.90;99.20;;;;;;5037604;28;20049;-67
2022/03/31 07:17:33;;;;;;;;;;;3.90;99.20;;;;;;5038302;28;19913;-67
2022/03/31 07:19:59;;;;;;;;;;;4.00;98.90;;;;;;5038226;28;19920;-67
2022/03/31 07:22:24;;;;;;;;;;;3.90;98.80;;;;;;5036368;28;19913;-67
2022/03/31 07:24:49;;;;;;;;;;;3.90;99.00;;;;;;5038916;28;19920;-67
2022/03/31 07:27:15;;;;;;;;;;;4.00;98.80;;;;;;5041229;28;20353;-67
2022/03/31 07:29:41;;;;;;;;;;;4.00;98.60;;;;;;5041960;28;19921;-67
2022/03/31 07:32:07;;;;;;;;;;;4.00;98.70;;;;;;5041398;28;19917;-67
2022/03/31 07:34:32;;;;;;;;;;;4.00;98.80;;;;;;5041353;28;19913;-67
2022/03/31 07:37:00;;;;;;;;;;;4.00;98.70;;;;;;5041312;28;19917;-67
2022/03/31 07:39:26;;;;;;;;;;;4.00;98.90;;;;;;5037710;28;20289;-67
2022/03/31 07:41:51;;;;;;;;;;;4.00;98.80;;;;;;5041217;28;19913;-67
2022/03/31 07:44:17;;;;;;;;;;;3.90;98.90;;;;;;5037210;28;19919;-67
2022/03/31 07:46:42;;;;;;;;;;;3.90;99.00;;;;;;5040347;28;20395;-67
2022/03/31 07:49:08;;;;;;;;;;;3.90;99.10;;;;;;5039601;28;20271;-67
2022/03/31 07:51:33;;;;;;;;;;;4.00;99.10;;;;;;5041369;28;20270;-68
2022/03/31 07:53:59;;;;;;;;;;;3.90;98.80;;;;;;5039685;28;19962;-67
2022/03/31 07:56:24;;;;;;;;;;;3.80;99.00;;;;;;5040443;28;19983;-67
2022/03/31 07:58:50;;;;;;;;;;;3.80;99.10;;;;;;5040563;28;19910;-67
2022/03/31 08:01:15;;;;;;;;;;;3.90;99.20;;;;;;5039927;28;19939;-67
2022/03/31 08:03:41;;;;;;;;;;;3.90;99.20;;;;;;5041090;28;19915;-67
2022/03/31 08:06:08;;;;;;;;;;;3.80;99.30;;;;;;5041317;28;19928;-67
2022/03/31 08:08:33;;;;;;;;;;;3.90;99.40;;;;;;5039621;28;19917;-67
2022/03/31 08:10:59;;;;;;;;;;;3.90;99.50;;;;;;5040959;28;19910;-67
2022/03/31 08:13:25;;;;;;;;;;;4.00;99.30;;;;;;5040513;28;19909;-67
2022/03/31 08:15:52;;;;;;;;;;;4.10;99.10;;;;;;5040922;28;19948;-67
2022/03/31 08:18:18;;;;;;;;;;;4.10;99.20;;;;;;5038927;28;20404;-67
2022/03/31 08:20:44;;;;;;;;;;;4.30;99.00;;;;;;5040085;28;20008;-67
2022/03/31 08:23:09;;;;;;;;;;;4.20;98.80;;;;;;5040064;28;19913;-67
2022/03/31 08:25:34;;;;;;;;;;;4.20;98.70;;;;;;5040057;28;20039;-67
2022/03/31 08:28:00;;;;;;;;;;;4.20;98.70;;;;;;5040392;28;19913;-67
2022/03/31 08:30:26;;;;;;;;;;;4.10;98.90;;;;;;5040299;28;19978;-67
2022/03/31 08:32:51;;;;;;;;;;;4.10;98.90;;;;;;5040460;28;19909;-67
2022/03/31 08:35:17;;;;;;;;;;;4.10;98.90;;;;;;5038653;28;19912;-67
2022/03/31 08:37:42;;;;;;;;;;;4.10;99.00;;;;;;5037437;28;19925;-67
2022/03/31 08:40:11;;;;;;;;;;;4.20;99.00;;;;;;5038937;28;19915;-67
2022/03/31 08:42:37;;;;;;;;;;;4.20;98.70;;;;;;5040089;28;19913;-67
2022/03/31 08:45:02;;;;;;;;;;;4.20;98.60;;;;;;5039358;28;19916;-67
2022/03/31 08:47:28;;;;;;;;;;;4.10;98.70;;;;;;5040195;28;19909;-67
2022/03/31 08:49:55;;;;;;;;;;;4.10;98.70;;;;;;5039935;28;19967;-68
2022/03/31 08:52:21;;;;;;;;;;;4.10;98.70;;;;;;5039207;28;19919;-68
2022/03/31 08:54:47;;;;;;;;;;;4.20;98.60;;;;;;5036942;28;19920;-68
2022/03/31 08:57:12;;;;;;;;;;;4.20;98.50;;;;;;5040172;28;19916;-68
2022/03/31 08:59:38;;;;;;;;;;;4.30;98.50;;;;;;5040515;28;19912;-68
2022/03/31 09:02:03;;;;;;;;;;;4.40;98.50;;;;;;5040089;28;19913;-68
2022/03/31 09:04:29;;;;;;;;;;;4.50;98.10;;;;;;5039923;28;19944;-68
2022/03/31 09:07:02;;;;;;;;;;;4.70;97.90;;;;;;5038794;28;20024;-67
2022/03/31 09:09:27;;;;;;;;;;;4.70;97.60;;;;;;5039686;28;20365;-68
2022/03/31 09:11:53;;;;;;;;;;;4.80;97.20;;;;;;5038314;28;19932;-68
2022/03/31 09:14:27;;;;;;;;;;;4.80;97.00;;;;;;5039069;28;19982;-67
2022/03/31 09:16:52;;;;;;;;;;;4.80;97.10;;;;;;5039462;28;19917;-68
2022/03/31 09:19:18;;;;;;;;;;;4.90;96.90;;;;;;5039523;28;19916;-68
2022/03/31 09:21:51;;;;;;;;;;;4.90;97.00;;;;;;5039332;28;19923;-68
2022/03/31 09:24:18;;;;;;;;;;;5.10;96.80;;;;;;5038422;28;19908;-68
2022/03/31 09:26:44;;;;;;;;;;;5.20;96.50;;;;;;5038657;28;19909;-68
2022/03/31 09:29:14;;;;;;;;;;;5.30;96.10;;;;;;5036495;28;20009;-67
2022/03/31 09:31:40;;;;;;;;;;;5.40;96.00;;;;;;5038735;28;19912;-68
2022/03/31 09:34:06;;;;;;;;;;;5.50;95.90;;;;;;5038801;28;19924;-68
2022/03/31 09:36:32;;;;;;;;;;;5.60;95.80;;;;;;5037945;28;20015;-68
2022/03/31 09:39:02;;;;;;;;;;;5.70;95.60;;;;;;5038698;28;20256;-68
2022/03/31 09:41:32;;;;;;;;;;;5.80;95.10;;;;;;5038819;28;19936;-68
2022/03/31 09:43:59;;;;;;;;;;;5.80;95.00;;;;;;5038958;28;19958;-68
2022/03/31 09:46:24;;;;;;;;;;;6.00;94.90;;;;;;5036133;28;19921;-68
2022/03/31 09:48:50;;;;;;;;;;;6.10;94.60;;;;;;5037825;28;19909;-68
2022/03/31 09:51:16;;;;;;;;;;;6.20;94.00;;;;;;5038528;28;19917;-68
2022/03/31 09:53:42;;;;;;;;;;;6.30;94.20;;;;;;5038261;28;19909;-68
2022/03/31 09:56:08;;;;;;;;;;;6.40;93.30;;;;;;5039310;28;19917;-68
2022/03/31 09:58:37;;;;;;;;;;;6.30;93.30;;;;;;5038918;28;19966;-68
2022/03/31 10:01:03;;;;;;;;;;;6.40;93.60;;;;;;5039186;28;19924;-68
2022/03/31 10:03:29;;;;;;;;;;;6.50;93.30;;;;;;5037488;28;19999;-68
2022/03/31 10:05:54;;;;;;;;;;;6.60;92.90;;;;;;5037327;28;20005;-68
2022/03/31 10:08:20;;;;;;;;;;;6.70;92.90;;;;;;5038375;28;19916;-67
2022/03/31 10:10:46;;;;;;;;;;;6.70;91.40;;;;;;5039087;28;19909;-68
2022/03/31 10:13:18;;;;;;;;;;;6.70;91.90;;;;;;5038512;28;20345;-68
2022/03/31 10:15:44;;;;;;;;;;;6.70;91.70;;;;;;5038489;28;20008;-68
2022/03/31 10:18:14;;;;;;;;;;;6.80;91.80;;;;;;5038363;28;19996;-68
2022/03/31 10:20:39;;;;;;;;;;;6.70;91.60;;;;;;5035945;28;19916;-68
2022/03/31 10:25:48;;;;;;;;;;;6.70;92.10;;;;;;5038827;28;19916;-68
2022/03/31 10:28:14;;;;;;;;;;;6.80;92.00;;;;;;5038046;28;19917;-68
2022/03/31 10:30:51;;;;;;;;;;;6.90;90.80;;;;;;5038739;28;20008;-68
2022/03/31 10:33:26;;;;;;;;;;;6.70;91.50;;;;;;5036657;28;19962;-68
2022/03/31 10:35:59;;;;;;;;;;;6.80;91.50;;;;;;5036367;28;20020;-68
2022/03/31 10:38:25;;;;;;;;;;;6.90;91.00;;;;;;5036287;28;19992;-68
2022/03/31 10:40:51;;;;;;;;;;;7.00;90.10;;;;;;5038045;28;20023;-68
2022/03/31 10:43:27;;;;;;;;;;;6.90;89.70;;;;;;5037725;28;19908;-68
2022/03/31 10:45:54;;;;;;;;;;;6.80;89.80;;;;;;5037937;28;19913;-68
2022/03/31 10:48:21;;;;;;;;;;;6.80;90.00;;;;;;5036992;28;19952;-68
2022/03/31 10:50:48;;;;;;;;;;;6.80;89.20;;;;;;5037954;28;20254;-68
2022/03/31 10:53:13;;;;;;;;;;;6.70;89.10;;;;;;5036294;28;19917;-68
2022/03/31 10:55:40;;;;;;;;;;;6.70;90.00;;;;;;5036436;28;19920;-68
2022/03/31 10:58:06;;;;;;;;;;;6.70;89.00;;;;;;5037163;28;19913;-68
2022/03/31 11:00:32;;;;;;;;;;;6.70;89.30;;;;;;5038444;28;20335;-68
2022/03/31 11:02:57;;;;;;;;;;;6.60;88.20;;;;;;5037407;28;20285;-68
2022/03/31 11:05:23;;;;;;;;;;;6.60;88.50;;;;;;5037750;28;20271;-68
2022/03/31 11:07:48;;;;;;;;;;;6.50;88.80;;;;;;5037515;28;19922;-68
2022/03/31 11:10:16;;;;;;;;;;;6.60;89.30;;;;;;5037301;28;19916;-68
2022/03/31 11:12:42;;;;;;;;;;;6.70;88.40;;;;;;5035483;28;20237;-68
2022/03/31 11:15:09;;;;;;;;;;;6.80;86.00;;;;;;5037006;28;19936;-68
2022/03/31 11:17:36;;;;;;;;;;;6.80;85.70;;;;;;5037000;28;20060;-68
2022/03/31 11:20:06;;;;;;;;;;;6.80;86.30;;;;;;5036902;28;19916;-68
2022/03/31 11:22:31;;;;;;;;;;;6.80;85.80;;;;;;5037361;28;20000;-68
2022/03/31 11:25:07;;;;;;;;;;;6.90;85.00;;;;;;5037506;28;20345;-68
2022/03/31 11:27:36;;;;;;;;;;;6.90;84.30;;;;;;5037634;28;19913;-68
2022/03/31 11:30:24;;;;;;;;;;;6.80;81.40;;;;;;5034752;28;19917;-68
2022/03/31 11:32:55;;;;;;;;;;;6.70;83.10;;;;;;5034528;28;19913;-68
2022/03/31 11:35:21;;;;;;;;;;;6.70;83.20;;;;;;5036674;28;19913;-68
2022/03/31 11:37:48;;;;;;;;;;;6.60;82.70;;;;;;5037420;28;19909;-68
2022/03/31 11:40:18;;;;;;;;;;;6.60;82.80;;;;;;5036623;28;19959;-68
2022/03/31 11:42:44;;;;;;;;;;;6.50;82.30;;;;;;5037230;28;19909;-68
2022/03/31 11:45:10;;;;;;;;;;;6.50;81.00;;;;;;5036383;28;19913;-68
2022/03/31 11:47:35;;;;;;;;;;;6.40;79.50;;;;;;5036040;28;20270;-68
2022/03/31 11:50:01;;;;;;;;;;;6.30;79.80;;;;;;5037441;28;20345;-68
2022/03/31 11:52:30;;;;;;;;;;;6.40;79.20;;;;;;5037700;28;20362;-68
2022/03/31 11:54:59;;;;;;;;;;;6.40;77.50;;;;;;5037125;28;20007;-68
2022/03/31 11:57:25;;;;;;;;;;;6.50;77.60;;;;;;5036726;28;19921;-68
2022/03/31 11:59:50;;;;;;;;;;;6.50;76.60;;;;;;5037539;28;19916;-68
2022/03/31 12:02:17;;;;;;;;;;;6.50;76.40;;;;;;5037043;28;19916;-68
2022/03/31 12:04:44;;;;;;;;;;;6.50;75.40;;;;;;5037435;28;19913;-68
2022/03/31 12:07:09;;;;;;;;;;;6.50;75.40;;;;;;5035578;28;19956;-68
2022/03/31 12:09:37;;;;;;;;;;;6.60;73.20;;;;;;5037181;28;19968;-67
2022/03/31 12:12:03;;;;;;;;;;;6.50;70.90;;;;;;5039622;28;19913;-68
2022/03/31 12:14:30;;;;;;;;;;;6.50;71.00;;;;;;5040730;28;19913;-68
2022/03/31 12:16:56;;;;;;;;;;;6.60;71.00;;;;;;5039278;28;20282;-68
2022/03/31 12:19:22;;;;;;;;;;;6.70;71.40;;;;;;5040547;28;20033;-68
2022/03/31 12:21:52;;;;;;;;;;;6.70;69.00;;;;;;5040695;28;19923;-68
2022/03/31 12:24:18;;;;;;;;;;;6.60;69.40;;;;;;5037538;28;20507;-68
2022/03/31 12:26:55;;;;;;;;;;;6.60;69.80;;;;;;5040002;28;19913;-68
2022/03/31 12:29:22;;;;;;;;;;;6.50;70.90;;;;;;5040407;28;20004;-67
2022/03/31 12:31:48;;;;;;;;;;;6.60;71.00;;;;;;5039675;28;20369;-68
2022/03/31 12:34:13;;;;;;;;;;;6.60;69.70;;;;;;5040153;28;19909;-68
2022/03/31 12:36:41;;;;;;;;;;;6.50;68.60;;;;;;5040535;28;19917;-68
2022/03/31 12:39:07;;;;;;;;;;;6.40;68.60;;;;;;5036801;28;19939;-68
2022/03/31 12:41:35;;;;;;;;;;;6.40;68.40;;;;;;5039811;28;19913;-68
2022/03/31 12:44:21;;;;;;;;;;;6.40;67.00;;;;;;5039451;28;20289;-68
2022/03/31 12:46:58;;;;;;;;;;;6.30;67.60;;;;;;5039582;28;20292;-68
2022/03/31 12:49:32;;;;;;;;;;;6.40;67.70;;;;;;5034945;28;19971;-68
2022/03/31 12:51:58;;;;;;;;;;;6.40;67.00;;;;;;5039932;28;20002;-68
2022/03/31 12:54:28;;;;;;;;;;;6.40;66.50;;;;;;5039507;28;19910;-68
2022/03/31 12:56:55;;;;;;;;;;;6.40;66.50;;;;;;5040389;28;19913;-68
2022/03/31 12:59:26;;;;;;;;;;;6.40;67.40;;;;;;5040311;28;19916;-68
2022/03/31 13:02:11;;;;;;;;;;;6.30;68.00;;;;;;5038909;28;20286;-68
2022/03/31 13:04:39;;;;;;;;;;;6.30;67.60;;;;;;5037736;28;20297;-68
2022/03/31 13:07:11;;;;;;;;;;;6.30;69.10;;;;;;5039129;28;20392;-68
2022/03/31 13:09:37;;;;;;;;;;;6.30;70.80;;;;;;5039369;28;20205;-68
2022/03/31 13:12:09;;;;;;;;;;;6.30;70.70;;;;;;5039661;28;20078;-68
2022/03/31 13:14:35;;;;;;;;;;;6.30;71.30;;;;;;5039235;28;19913;-68
2022/03/31 13:17:00;;;;;;;;;;;6.20;71.40;;;;;;5039457;28;19928;-68
2022/03/31 13:19:26;;;;;;;;;;;6.20;71.00;;;;;;5039699;28;19912;-68
2022/03/31 13:21:51;;;;;;;;;;;6.30;70.10;;;;;;5037425;28;19909;-68
2022/03/31 13:24:17;;;;;;;;;;;6.20;69.50;;;;;;5038107;28;19991;-68
2022/03/31 13:26:42;;;;;;;;;;;6.20;70.10;;;;;;5039372;28;19963;-68
2022/03/31 13:29:10;;;;;;;;;;;6.10;70.00;;;;;;5038335;28;20285;-68
2022/03/31 13:31:40;;;;;;;;;;;6.10;70.30;;;;;;5038801;28;20388;-68
2022/03/31 13:34:06;;;;;;;;;;;6.00;70.30;;;;;;5038436;28;19920;-68
2022/03/31 13:36:31;;;;;;;;;;;6.00;70.50;;;;;;5038841;28;19975;-67
2022/03/31 13:38:57;;;;;;;;;;;6.10;71.10;;;;;;5036969;28;20468;-68
2022/03/31 13:41:23;;;;;;;;;;;6.10;70.00;;;;;;5038026;28;20193;-68
2022/03/31 13:43:49;;;;;;;;;;;6.00;70.10;;;;;;5038651;28;19919;-68
2022/03/31 13:46:14;;;;;;;;;;;6.00;70.00;;;;;;5038528;28;19913;-68
2022/03/31 13:48:40;;;;;;;;;;;6.00;70.60;;;;;;5039113;28;19917;-68
2022/03/31 13:51:05;;;;;;;;;;;5.90;70.80;;;;;;5038889;28;19909;-68
2022/03/31 13:53:46;;;;;;;;;;;5.90;70.80;;;;;;5038968;28;19973;-68
2022/03/31 13:56:13;;;;;;;;;;;5.90;71.00;;;;;;5037487;28;19913;-68
2022/03/31 14:01:22;;;;;;;;;;;5.90;71.50;;;;;;5039458;28;19935;-67
2022/03/31 14:03:48;;;;;;;;;;;5.90;72.10;;;;;;5038899;28;20369;-67
2022/03/31 14:06:16;;;;;;;;;;;5.90;70.90;;;;;;5038739;28;19920;-68
2022/03/31 14:08:44;;;;;;;;;;;5.90;70.30;;;;;;5038355;28;20008;-68
2022/03/31 14:11:10;;;;;;;;;;;5.90;70.20;;;;;;5038773;28;20214;-68
2022/03/31 14:13:36;;;;;;;;;;;5.90;70.30;;;;;;5038228;28;19909;-68
2022/03/31 14:16:03;;;;;;;;;;;6.00;70.20;;;;;;5036295;28;19921;-68
2022/03/31 14:18:29;;;;;;;;;;;6.00;70.20;;;;;;5038150;28;20361;-68
2022/03/31 14:20:55;;;;;;;;;;;6.00;70.40;;;;;;5035012;28;19912;-66
2022/03/31 14:23:20;;;;;;;;;;;6.00;69.90;;;;;;5035782;28;19924;-67
2022/03/31 14:25:46;;;;;;;;;;;6.00;70.10;;;;;;5037926;28;20483;-67
2022/03/31 14:28:11;;;;;;;;;;;6.00;69.90;;;;;;5037557;28;19913;-66
2022/03/31 14:30:38;;;;;;;;;;;6.10;69.30;;;;;;5037967;28;20377;-66
2022/03/31 14:33:05;;;;;;;;;;;6.00;69.20;;;;;;5035184;28;20007;-66
2022/03/31 14:35:32;;;;;;;;;;;6.10;69.00;;;;;;5037538;28;19928;-67